ideipodarkov.net alexa rank chart, ideipodarkov.net alexa rank daily changes

ideipodarkov.net alexa rank chart, ideipodarkov.net alexa rank daily changes

ideipodarkov.net
Actual rank:
324 246

RANK HISTORY

Date Rank Diff
2017/05/29 324 246 +88
2017/05/28 324 158 +3 489
2017/05/27 320 669 +3 449
2017/05/26 317 220 -2 337
2017/05/25 319 557 -3 020
2017/05/24 322 577 +7 184
2017/05/23 315 393 -300
2017/05/22 315 693 +2 414
2017/05/21 313 279 -1 883
2017/05/20 315 162 +603
2017/05/19 314 559 -1 253
2017/05/18 315 812 -5 196
2017/05/17 321 008 -3 681
2017/05/16 324 689 +5 296
2017/05/15 319 393 +4 925
2017/05/14 314 468 +10 910
2017/05/13 303 558 +5 629
2017/05/12 297 929 +2 337
2017/05/11 295 592 +1 872
2017/05/10 293 720 +4 902
2017/05/09 288 818 -1 142
2017/05/08 289 960 +617
2017/05/07 289 343 +3 191
2017/05/06 286 152 -2 347
2017/05/05 288 499 +3 408
2017/05/04 285 091 +1 989
2017/05/03 283 102 +2 387
2017/05/02 280 715 +2 621
2017/05/01 278 094 +1 751
2017/04/30 276 343 +2 210
2017/04/29 274 133 -361
2017/04/28 274 494 +1 870
2017/04/27 272 624 +2 005
2017/04/26 270 619 +1 635
2017/04/25 268 984 +1 451
2017/04/24 267 533 -1 855
2017/04/23 269 388 -1 812
2017/04/22 271 200 -296
2017/04/21 271 496 +139
2017/04/20 271 357 +677
2017/04/19 270 680 -279
2017/04/18 270 959 +3 117
2017/04/17 267 842 +2 208
2017/04/16 265 634 -1 905
2017/04/15 267 539 +887
2017/04/14 266 652 -4 470
2017/04/13 271 122 -3 396
2017/04/12 274 518 -718
2017/04/11 275 236 +16 852
2017/04/10 258 384 +830
2017/04/09 257 554 +4 672
2017/04/08 252 882 +7 332
2017/04/07 245 550 +4 743
2017/04/06 240 807 +8 783
2017/04/05 232 024 +5 747
2017/04/04 226 277 +6 476
2017/04/03 219 801 +3 813
2017/04/02 215 988 +2 901
2017/04/01 213 087 +1 745
2017/03/31 211 342 +469
2017/03/30 210 873

WIDGET FOR YOUR SITE

DOMAINS WITH THE NEAREST RANK

Domain Rank
envylook.com 324 241
vaganza.us 324 242
pesnigitara.com 324 243
gaea.com.br 324 244
myhappybaby.co.kr 324 245
ideipodarkov.net 324 246
yuanfr.com 324 247
ramossoft.com 324 248
traders-school.ru 324 249
colorkinetics.com 324 250
tokai.co.jp 324 251

DOMAINS WITH THE NEAREST RANK BY TLD .net

Domain Rank
rapeboard.net 324 167
termania.net 324 209
1-ch.net 324 215
thuthuatmeovat.net 324 217
nuveforum.net 324 233
ideipodarkov.net 324 246
bilee.net 324 255
sinsa.net 324 263
mach-shiko.net 324 267
qq8q.net 324 293
my-unlim.net 324 297